Time;durP1;ratioP1;P1;durP2;ratioP2;P2;SDS_P1;SDS_P2;PMS_P1;PMS_P2;Temp;Humidity;BMP_temperature;BMP_pressure;BME280_temperature;BME280_humidity;BME280_pressure;Samples;Min_cycle;Max_cycle;Signal;HPM_P1;HPM_P2
2023/01/11 00:01:28;;;;;;;1.07;0.97;;;;;;;6.48;86.84;97041.94;5079461;28;20248;-58
2023/01/11 00:03:56;;;;;;;0.93;0.93;;;;;;;6.54;82.33;97028.38;5080146;28;20520;-58
2023/01/11 00:06:23;;;;;;;2.30;1.03;;;;;;;6.57;78.94;97038.66;5074497;28;20266;-58
2023/01/11 00:08:49;;;;;;;3.93;1.37;;;;;;;6.61;78.51;97037.50;5078326;28;20203;-57
2023/01/11 00:11:18;;;;;;;2.63;0.97;;;;;;;6.66;79.97;97039.81;5079062;28;20202;-58
2023/01/11 00:13:44;;;;;;;1.13;1.00;;;;;;;6.70;82.12;97039.44;5081278;28;20281;-57
2023/01/11 00:16:12;;;;;;;1.67;1.00;;;;;;;6.71;82.26;97033.25;5076486;28;20207;-57
2023/01/11 00:18:39;;;;;;;4.20;1.00;;;;;;;6.69;83.21;97044.84;5077351;28;20199;-58
2023/01/11 00:21:08;;;;;;;1.37;1.27;;;;;;;6.61;84.32;97041.91;5076938;28;20260;-57
2023/01/11 00:23:35;;;;;;;1.10;1.00;;;;;;;6.68;81.65;97044.00;5078006;28;20203;-57
2023/01/11 00:26:03;;;;;;;1.13;1.00;;;;;;;6.70;75.97;97042.06;5069640;28;20273;-57
2023/01/11 00:28:29;;;;;;;1.67;1.17;;;;;;;6.76;76.69;97032.94;5070222;28;20226;-58
2023/01/11 00:30:56;;;;;;;2.03;1.17;;;;;;;6.76;73.03;97020.63;5069888;28;20636;-58
2023/01/11 00:33:22;;;;;;;1.40;1.10;;;;;;;6.85;73.41;97022.59;5070509;28;20217;-58
2023/01/11 00:35:51;;;;;;;0.90;0.90;;;;;;;6.95;71.36;97026.22;5069464;28;20202;-58
2023/01/11 00:47:55;;;;;;;2.53;1.20;;;;;;;7.05;71.97;97023.75;5073051;28;20286;-56
2023/01/11 00:49:13;;;;;;;0.90;0.90;;;;;;;7.06;74.82;97027.22;5073648;28;21535;-58
2023/01/11 00:51:40;;;;;;;1.40;0.90;;;;;;;7.06;73.21;97032.47;5073419;28;20570;-57
2023/01/11 00:54:08;;;;;;;1.30;1.20;;;;;;;7.07;72.19;97023.66;5073527;28;20202;-57
2023/01/11 00:56:34;;;;;;;2.13;1.40;;;;;;;7.06;71.45;97027.22;5073991;28;20218;-58
2023/01/11 00:59:01;;;;;;;1.43;0.83;;;;;;;7.05;72.53;97030.81;5073524;28;20200;-58
2023/01/11 01:01:28;;;;;;;1.73;0.90;;;;;;;7.00;74.41;97028.53;5073082;28;20230;-58
2023/01/11 01:03:54;;;;;;;0.97;0.77;;;;;;;7.04;72.79;97029.13;5073634;28;20216;-58
2023/01/11 01:06:21;;;;;;;1.23;0.80;;;;;;;7.07;70.39;97026.28;5073843;28;20512;-56
2023/01/11 01:08:47;;;;;;;1.50;1.10;;;;;;;7.11;71.33;97028.59;5073871;28;20202;-58
2023/01/11 01:11:15;;;;;;;2.13;1.20;;;;;;;7.13;71.39;97034.56;5073233;28;20210;-57
2023/01/11 01:16:26;;;;;;;5.67;2.03;;;;;;;7.12;70.79;97037.31;5072901;28;20527;-57
2023/01/11 01:18:55;;;;;;;4.37;2.30;;;;;;;7.08;71.64;97033.22;5073136;28;20211;-57
2023/01/11 01:21:23;;;;;;;2.63;1.73;;;;;;;7.03;72.99;97028.28;5073467;28;20206;-58
2023/01/11 01:23:51;;;;;;;5.17;1.60;;;;;;;7.00;74.36;97036.41;5073260;28;20210;-59
2023/01/11 01:26:19;;;;;;;1.80;1.20;;;;;;;6.95;72.68;97030.63;5072855;28;20210;-59
2023/01/11 01:28:45;;;;;;;2.23;1.27;;;;;;;6.95;76.75;97031.47;5073692;28;20221;-58
2023/01/11 01:31:12;;;;;;;1.57;1.10;;;;;;;6.98;77.11;97036.50;5073047;28;20313;-57
2023/01/11 01:33:39;;;;;;;1.90;1.37;;;;;;;7.00;79.37;97023.25;5073467;28;20211;-58
2023/01/11 01:36:06;;;;;;;2.07;0.93;;;;;;;6.90;76.08;97022.25;5072614;28;20199;-58
2023/01/11 01:38:32;;;;;;;1.43;1.10;;;;;;;6.85;73.17;97014.69;5073057;28;20217;-57
2023/01/11 01:40:59;;;;;;;1.50;0.80;;;;;;;6.93;73.81;97006.25;5072871;28;20217;-57
2023/01/11 01:43:46;;;;;;;1.33;0.83;;;;;;;6.98;71.05;96994.44;5073679;28;20544;-58
2023/01/11 01:46:12;;;;;;;1.50;0.90;;;;;;;7.03;73.64;97001.16;5073419;28;20206;-58
2023/01/11 01:48:39;;;;;;;1.70;1.17;;;;;;;7.05;74.05;97009.78;5073135;28;20630;-58
2023/01/11 01:51:07;;;;;;;1.43;0.90;;;;;;;7.04;76.02;97011.56;5073661;28;20202;-57
2023/01/11 01:53:36;;;;;;;1.73;0.80;;;;;;;7.06;77.53;97006.19;5072555;28;20214;-58
2023/01/11 01:56:06;;;;;;;1.77;0.90;;;;;;;7.06;74.05;96996.50;5072285;28;20297;-58
2023/01/11 01:58:36;;;;;;;2.40;1.20;;;;;;;7.14;73.13;97003.84;5072662;28;20211;-57
2023/01/11 02:03:43;;;;;;;0.80;0.80;;;;;;;7.15;72.48;97005.53;5072071;28;20230;-57
2023/01/11 02:06:10;;;;;;;1.07;0.90;;;;;;;7.15;74.42;97006.38;5072694;28;20213;-58
2023/01/11 02:08:40;;;;;;;2.83;1.10;;;;;;;7.10;75.56;97005.84;5072558;28;20217;-57
2023/01/11 02:11:28;;;;;;;2.03;1.40;;;;;;;7.15;75.01;96995.00;5071508;28;20616;-58
2023/01/11 02:13:55;;;;;;;1.20;1.10;;;;;;;7.23;68.87;96988.22;5072224;28;20660;-57
2023/01/11 02:16:22;;;;;;;1.80;0.90;;;;;;;7.25;68.82;96980.22;5072012;28;20198;-57
2023/01/11 02:18:48;;;;;;;0.60;0.60;;;;;;;7.25;70.20;96980.22;5072090;28;20745;-57
2023/01/11 02:21:22;;;;;;;1.00;0.87;;;;;;;7.30;71.32;96983.31;5071947;28;20213;-58
2023/01/11 02:24:10;;;;;;;0.83;0.80;;;;;;;7.29;71.89;96981.66;5072210;28;20244;-58
2023/01/11 02:26:57;;;;;;;0.80;0.80;;;;;;;7.20;68.70;96966.56;5072198;28;20199;-58
2023/01/11 02:29:32;;;;;;;1.13;0.80;;;;;;;7.19;69.94;96960.44;5071205;28;20623;-58
2023/01/11 02:32:06;;;;;;;0.80;0.80;;;;;;;7.27;69.63;96954.63;5072463;28;20187;-58
2023/01/11 02:34:40;;;;;;;0.77;0.77;;;;;;;7.32;69.10;96955.13;5071829;28;20209;-58
2023/01/11 02:37:27;;;;;;;0.90;0.60;;;;;;;7.31;68.53;96953.44;5072031;28;20203;-58
2023/01/11 02:40:00;;;;;;;1.20;0.80;;;;;;;7.33;67.91;96951.56;5071532;28;20635;-58
2023/01/11 02:45:28;;;;;;;1.30;0.93;;;;;;;7.31;69.32;96933.25;5071018;28;20201;-58
2023/01/11 02:47:57;;;;;;;1.07;1.03;;;;;;;7.32;69.35;96936.72;5071566;28;20201;-58
2023/01/11 02:50:29;;;;;;;1.00;0.90;;;;;;;7.40;68.59;96942.25;5071762;28;20213;-59
2023/01/11 02:52:59;;;;;;;1.30;0.90;;;;;;;7.34;68.93;96932.16;5072332;28;20191;-58
2023/01/11 02:55:29;;;;;;;1.47;0.90;;;;;;;7.34;69.87;96929.53;5072118;28;20207;-58
2023/01/11 02:57:58;;;;;;;0.67;0.67;;;;;;;7.34;71.19;96937.41;5073835;28;20203;-58
2023/01/11 03:00:27;;;;;;;0.80;0.70;;;;;;;7.34;70.29;96927.75;5071816;28;20233;-58
2023/01/11 03:03:07;;;;;;;2.30;0.93;;;;;;;7.35;71.49;96928.59;5072788;28;20222;-59
2023/01/11 03:05:38;;;;;;;0.90;0.90;;;;;;;7.38;70.06;96923.09;5073771;28;20205;-59
2023/01/11 03:08:15;;;;;;;0.90;0.90;;;;;;;7.32;70.13;96918.31;5081580;28;20237;-57
2023/01/11 03:10:49;;;;;;;1.10;1.00;;;;;;;7.37;70.37;96911.72;5091461;28;20194;-57
2023/01/11 03:13:22;;;;;;;1.47;0.87;;;;;;;7.39;70.62;96906.34;5089594;28;20195;-58
2023/01/11 03:15:56;;;;;;;1.10;1.10;;;;;;;7.44;71.87;96906.81;5094370;28;20268;-57
2023/01/11 03:18:29;;;;;;;0.70;0.70;;;;;;;7.44;70.35;96909.44;5092529;28;20258;-62
2023/01/11 03:21:02;;;;;;;0.80;0.80;;;;;;;7.48;70.86;96913.53;5094811;28;20194;-57
2023/01/11 03:23:34;;;;;;;1.00;1.00;;;;;;;7.47;70.15;96896.91;5093760;28;20207;-58
2023/01/11 03:26:03;;;;;;;0.83;0.83;;;;;;;7.49;70.48;96899.44;5079976;28;20190;-58
2023/01/11 03:28:34;;;;;;;0.90;0.90;;;;;;;7.45;70.22;96903.25;5074719;28;20613;-57
2023/01/11 03:31:05;;;;;;;1.20;1.10;;;;;;;7.42;72.30;96903.50;5070931;28;20311;-58
2023/01/11 03:33:36;;;;;;;1.73;1.10;;;;;;;7.47;69.51;96890.81;5071523;28;20195;-58
2023/01/11 03:36:09;;;;;;;1.47;0.97;;;;;;;7.51;69.81;96897.50;5077286;28;20213;-56
2023/01/11 03:38:39;;;;;;;1.80;0.80;;;;;;;7.49;70.46;96886.28;5078533;28;20225;-56
2023/01/11 03:41:07;;;;;;;0.70;0.70;;;;;;;7.45;71.97;96893.56;5079382;28;20221;-58
2023/01/11 03:43:36;;;;;;;1.33;0.80;;;;;;;7.44;72.94;96881.34;5079244;28;20218;-57
2023/01/11 03:46:06;;;;;;;1.57;0.73;;;;;;;7.42;73.18;96878.00;5079002;28;20206;-58
2023/01/11 03:48:37;;;;;;;1.97;1.10;;;;;;;7.42;74.77;96885.06;5075327;28;20286;-58
2023/01/11 03:51:05;;;;;;;2.40;0.90;;;;;;;7.37;75.51;96897.72;5071052;28;20205;-58
2023/01/11 03:53:35;;;;;;;1.40;0.70;;;;;;;7.46;72.46;96883.88;5071008;28;20755;-57
2023/01/11 03:56:03;;;;;;;1.27;0.90;;;;;;;7.51;72.69;96881.72;5069696;28;21337;-58
2023/01/11 03:58:30;;;;;;;0.87;0.87;;;;;;;7.51;71.40;96872.03;5070668;28;20206;-58
2023/01/11 04:00:57;;;;;;;1.87;0.90;;;;;;;7.52;74.15;96872.88;5069447;28;20291;-57
2023/01/11 04:03:27;;;;;;;2.00;0.80;;;;;;;7.50;72.04;96866.91;5070405;28;20237;-58
2023/01/11 04:05:57;;;;;;;0.50;0.50;;;;;;;7.59;70.83;96858.28;5070742;28;20202;-56
2023/01/11 04:08:24;;;;;;;1.13;0.80;;;;;;;7.57;71.88;96857.59;5070498;28;20216;-58
2023/01/11 04:10:50;;;;;;;0.73;0.60;;;;;;;7.61;72.48;96855.53;5070036;28;20217;-58
2023/01/11 04:13:17;;;;;;;0.80;0.80;;;;;;;7.65;71.88;96855.16;5072439;28;20198;-57
2023/01/11 04:15:43;;;;;;;0.70;0.70;;;;;;;7.64;71.26;96860.56;5074650;28;20210;-58
2023/01/11 04:18:09;;;;;;;0.60;0.60;;;;;;;7.65;72.12;96863.06;5074302;28;20221;-57
2023/01/11 04:20:39;;;;;;;0.60;0.60;;;;;;;7.69;71.30;96861.03;5074747;28;20203;-58
2023/01/11 04:23:06;;;;;;;0.60;0.60;;;;;;;7.72;71.82;96861.63;5073731;28;20650;-58
2023/01/11 04:25:32;;;;;;;0.60;0.60;;;;;;;7.77;71.27;96856.84;5073860;28;20206;-58
2023/01/11 04:27:59;;;;;;;0.60;0.57;;;;;;;7.77;70.26;96856.00;5073642;28;20206;-57
2023/01/11 04:30:26;;;;;;;0.63;0.50;;;;;;;7.80;71.89;96856.59;5074182;28;20203;-59
2023/01/11 04:32:52;;;;;;;1.20;0.77;;;;;;;7.79;75.08;96860.22;5073677;28;20217;-58
2023/01/11 04:35:19;;;;;;;1.00;0.57;;;;;;;7.82;71.47;96862.59;5074076;28;20202;-57
2023/01/11 04:37:47;;;;;;;0.57;0.50;;;;;;;7.82;74.35;96859.13;5073972;28;20532;-57
2023/01/11 04:40:15;;;;;;;0.40;0.40;;;;;;;7.84;70.43;96867.72;5073528;28;20228;-57
2023/01/11 04:42:40;;;;;;;0.63;0.63;;;;;;;7.84;70.92;96860.66;5073713;28;20233;-57
2023/01/11 04:45:07;;;;;;;0.53;0.53;;;;;;;7.85;72.93;96867.63;5074077;28;20294;-58
2023/01/11 04:47:34;;;;;;;1.07;0.70;;;;;;;7.85;70.46;96859.72;5073506;28;20233;-57
2023/01/11 04:50:00;;;;;;;0.60;0.60;;;;;;;7.85;72.01;96857.09;5073640;28;20207;-58
2023/01/11 04:52:27;;;;;;;1.07;0.50;;;;;;;7.83;71.91;96848.47;5073405;28;20217;-58
2023/01/11 04:54:57;;;;;;;0.60;0.60;;;;;;;7.82;74.47;96849.44;5073216;28;20198;-58
2023/01/11 04:57:24;;;;;;;0.97;0.60;;;;;;;7.84;75.21;96847.50;5073076;28;20553;-58
2023/01/11 04:59:51;;;;;;;0.60;0.50;;;;;;;7.93;72.36;96833.63;5073199;28;20237;-56
2023/01/11 05:02:18;;;;;;;0.63;0.63;;;;;;;7.90;72.79;96847.00;5073206;28;20240;-57
2023/01/11 05:04:44;;;;;;;0.60;0.60;;;;;;;7.91;73.09;96843.44;5073430;28;20294;-57
2023/01/11 05:07:11;;;;;;;0.40;0.40;;;;;;;7.92;74.49;96837.22;5073244;28;20547;-58
2023/01/11 05:09:39;;;;;;;0.53;0.53;;;;;;;7.91;74.56;96843.44;5072917;28;20230;-58
2023/01/11 05:12:07;;;;;;;0.43;0.43;;;;;;;7.91;75.50;96843.44;5073599;28;20964;-58
2023/01/11 05:14:33;;;;;;;1.03;0.60;;;;;;;7.84;73.87;96847.50;5072960;28;20195;-56
2023/01/11 05:17:00;;;;;;;0.43;0.43;;;;;;;7.86;74.98;96844.78;5073108;28;20213;-58
2023/01/11 05:19:26;;;;;;;0.50;0.50;;;;;;;7.87;75.67;96830.63;5072956;28;20207;-58
2023/01/11 05:21:53;;;;;;;0.80;0.80;;;;;;;7.86;76.78;96832.44;5073145;28;20210;-58
2023/01/11 05:24:19;;;;;;;0.80;0.80;;;;;;;7.87;75.65;96836.72;5071781;28;20234;-58
2023/01/11 05:26:48;;;;;;;0.50;0.50;;;;;;;7.93;72.46;96831.00;5073312;28;20212;-58
2023/01/11 05:29:19;;;;;;;1.10;0.67;;;;;;;7.92;73.55;96834.59;5073100;28;20237;-58
2023/01/11 05:31:45;;;;;;;0.63;0.63;;;;;;;7.87;74.67;96833.25;5073194;28;20206;-58
2023/01/11 05:34:13;;;;;;;2.80;0.90;;;;;;;7.84;77.73;96831.72;5072722;28;20608;-58
2023/01/11 05:36:40;;;;;;;0.93;0.63;;;;;;;7.84;77.87;96831.72;5075299;28;20556;-57
2023/01/11 05:39:07;;;;;;;1.10;1.00;;;;;;;7.77;78.82;96838.41;5074577;28;20544;-58
2023/01/11 05:41:33;;;;;;;0.63;0.63;;;;;;;7.76;76.83;96826.22;5074881;28;20209;-59
2023/01/11 05:46:45;;;;;;;1.10;0.80;;;;;;;7.67;80.37;96834.00;5074170;28;20213;-59
2023/01/11 05:49:13;;;;;;;0.70;0.60;;;;;;;7.71;79.92;96833.66;5073534;28;20214;-59
2023/01/11 05:51:40;;;;;;;0.77;0.77;;;;;;;7.62;79.45;96826.47;5074185;28;20214;-58
2023/01/11 05:54:09;;;;;;;1.50;1.20;;;;;;;7.66;79.99;96832.31;5074064;28;20535;-59
2023/01/11 05:56:36;;;;;;;1.13;1.03;;;;;;;7.58;80.95;96834.75;5072208;28;20203;-58
2023/01/11 05:59:03;;;;;;;0.93;0.93;;;;;;;7.50;81.92;96827.44;5076437;28;20654;-57
2023/01/11 06:01:30;;;;;;;1.30;1.13;;;;;;;7.52;80.58;96828.13;5075229;28;20230;-56
2023/01/11 06:03:58;;;;;;;1.03;0.93;;;;;;;7.47;83.11;96828.50;5075924;28;20214;-57
2023/01/11 06:06:25;;;;;;;1.03;0.90;;;;;;;7.46;82.02;96826.84;5075878;28;20198;-57
2023/01/11 06:08:52;;;;;;;2.57;1.30;;;;;;;7.43;82.41;96836.75;5076330;28;20203;-56
2023/01/11 06:11:18;;;;;;;1.40;1.30;;;;;;;7.34;82.52;96832.19;5072952;28;20198;-56
2023/01/11 06:13:45;;;;;;;1.53;1.30;;;;;;;7.31;83.80;96832.44;5072492;28;20214;-57
2023/01/11 06:16:13;;;;;;;3.10;1.87;;;;;;;7.31;85.49;96832.44;5073948;28;20206;-56
2023/01/11 06:18:40;;;;;;;1.90;1.40;;;;;;;7.30;84.54;96836.00;5073928;28;20210;-56
2023/01/11 06:21:09;;;;;;;8.00;1.77;;;;;;;7.28;86.29;96827.41;5072956;28;20221;-56
2023/01/11 06:23:39;;;;;;;1.47;1.37;;;;;;;7.27;86.71;96825.72;5072978;28;20658;-57
2023/01/11 06:26:07;;;;;;;1.50;1.37;;;;;;;7.28;85.59;96820.38;5072222;28;20218;-55
2023/01/11 06:28:34;;;;;;;1.40;1.30;;;;;;;7.24;86.12;96823.34;5073248;28;20233;-56
2023/01/11 06:31:01;;;;;;;1.77;1.03;;;;;;;7.26;85.89;96811.75;5073039;28;20545;-56
2023/01/11 06:33:29;;;;;;;0.80;0.70;;;;;;;7.40;81.27;96811.50;5072295;28;20213;-57
2023/01/11 06:35:56;;;;;;;2.47;0.60;;;;;;;7.44;80.00;96815.56;5073797;28;20206;-56
2023/01/11 06:38:24;;;;;;;0.73;0.70;;;;;;;7.41;80.40;96812.34;5072808;28;20213;-56
2023/01/11 06:40:53;;;;;;;0.93;0.60;;;;;;;7.46;81.00;96815.47;5072807;28;20241;-57
2023/01/11 06:43:20;;;;;;;1.63;0.70;;;;;;;7.50;79.17;96816.91;5073992;28;20230;-56
2023/01/11 06:45:47;;;;;;;1.10;0.77;;;;;;;7.56;77.92;96811.16;5072620;28;20207;-57
2023/01/11 06:48:13;;;;;;;0.50;0.50;;;;;;;7.59;78.17;96808.28;5073744;28;20217;-56
2023/01/11 06:50:40;;;;;;;1.90;0.80;;;;;;;7.64;78.85;96819.28;5072246;28;20203;-57
2023/01/11 06:53:06;;;;;;;0.93;0.60;;;;;;;7.69;79.63;96817.13;5072006;28;20198;-56
2023/01/11 06:55:35;;;;;;;1.43;0.70;;;;;;;7.72;79.47;96824.78;5073353;28;20230;-57
2023/01/11 06:58:01;;;;;;;1.03;0.60;;;;;;;7.77;78.09;96832.31;5072826;28;20218;-56
2023/01/11 07:00:28;;;;;;;0.50;0.50;;;;;;;7.78;77.74;96832.22;5072209;28;20356;-57
2023/01/11 07:02:54;;;;;;;0.83;0.70;;;;;;;7.80;79.64;96819.75;5073149;28;20221;-56
2023/01/11 07:05:21;;;;;;;1.63;0.70;;;;;;;7.84;79.39;96823.81;5073454;28;20194;-56
2023/01/11 07:07:49;;;;;;;0.60;0.60;;;;;;;7.86;77.27;96824.53;5072206;28;20190;-56
2023/01/11 07:10:16;;;;;;;1.60;0.43;;;;;;;7.91;79.61;96825.00;5070950;28;20199;-57
2023/01/11 07:12:44;;;;;;;0.70;0.57;;;;;;;7.91;78.72;96811.84;5073832;28;20233;-57
2023/01/11 07:15:11;;;;;;;1.73;0.70;;;;;;;7.91;77.33;96825.00;5073097;28;20202;-57
2023/01/11 07:17:37;;;;;;;0.50;0.50;;;;;;;7.98;78.15;96809.53;5076200;28;20647;-56
2023/01/11 07:20:05;;;;;;;0.70;0.70;;;;;;;8.02;76.17;96813.59;5071222;28;20220;-57
2023/01/11 07:22:34;;;;;;;0.50;0.50;;;;;;;8.07;76.47;96815.88;5074270;28;20242;-57
2023/01/11 07:25:00;;;;;;;0.53;0.40;;;;;;;8.09;76.58;96813.94;5073127;28;20230;-56
2023/01/11 07:27:27;;;;;;;1.00;0.90;;;;;;;8.08;78.11;96812.28;5070646;28;20309;-56
2023/01/11 07:29:55;;;;;;;0.80;0.73;;;;;;;8.09;78.92;96821.84;5071399;28;20214;-55
2023/01/11 07:32:21;;;;;;;0.60;0.57;;;;;;;8.08;78.59;96823.63;5069816;28;20577;-54
2023/01/11 07:34:48;;;;;;;0.60;0.60;;;;;;;8.12;78.81;96817.16;5071823;28;20194;-55
2023/01/11 07:37:14;;;;;;;0.60;0.50;;;;;;;8.14;77.18;96811.78;5071389;28;20526;-54
2023/01/11 07:39:41;;;;;;;0.73;0.73;;;;;;;8.23;76.95;96811.88;5070468;28;20202;-55
2023/01/11 07:44:55;;;;;;;0.60;0.60;;;;;;;8.36;74.47;96801.22;5070594;28;20229;-57
2023/01/11 07:47:22;;;;;;;1.90;1.70;;;;;;;8.35;77.47;96810.09;5070354;28;20216;-57
2023/01/11 07:49:48;;;;;;;1.70;1.40;;;;;;;8.35;76.60;96802.19;5071017;28;20222;-56
2023/01/11 07:52:15;;;;;;;0.70;0.70;;;;;;;8.35;76.32;96800.38;5070441;28;20206;-58
2023/01/11 07:54:41;;;;;;;0.90;0.90;;;;;;;8.35;78.40;96789.84;5070039;28;20205;-57
2023/01/11 07:57:08;;;;;;;0.40;0.40;;;;;;;8.36;76.97;96796.75;5069775;28;20221;-57
2023/01/11 07:59:34;;;;;;;0.50;0.50;;;;;;;8.36;78.69;96801.22;5070582;28;20232;-56
2023/01/11 08:02:05;;;;;;;0.60;0.60;;;;;;;8.40;75.86;96797.34;5070829;28;20224;-57
2023/01/11 08:04:31;;;;;;;0.60;0.60;;;;;;;8.39;76.10;96793.06;5070757;28;20218;-57
2023/01/11 08:06:58;;;;;;;0.80;0.80;;;;;;;8.34;76.37;96798.69;5070352;28;20601;-57
2023/01/11 08:09:24;;;;;;;1.03;0.60;;;;;;;8.41;77.21;96801.66;5070359;28;20198;-57
2023/01/11 08:14:41;;;;;;;0.83;0.70;;;;;;;8.44;79.59;96804.88;5071320;28;20275;-57
2023/01/11 08:17:10;;;;;;;3.83;0.83;;;;;;;8.48;80.46;96801.03;5071884;28;20198;-57
2023/01/11 08:19:37;;;;;;;0.50;0.50;;;;;;;8.54;76.05;96799.69;5070577;28;20210;-56
2023/01/11 08:22:03;;;;;;;0.60;0.47;;;;;;;8.59;75.43;96802.78;5070979;28;20217;-57
2023/01/11 08:24:30;;;;;;;0.80;0.80;;;;;;;8.62;78.07;96807.81;5070516;28;20226;-56
2023/01/11 08:26:56;;;;;;;0.50;0.50;;;;;;;8.66;79.99;96813.66;5070716;28;20210;-58
2023/01/11 08:29:23;;;;;;;1.80;0.50;;;;;;;8.72;77.90;96821.06;5069657;28;20294;-56
2023/01/11 08:31:51;;;;;;;1.57;0.93;;;;;;;8.72;76.14;96824.53;5070907;28;20221;-55
2023/01/11 08:34:19;;;;;;;1.10;0.77;;;;;;;8.78;77.17;96833.75;5071269;28;20191;-57
2023/01/11 08:36:45;;;;;;;1.10;0.80;;;;;;;8.78;78.21;96829.31;5072195;28;20198;-57
2023/01/11 08:39:12;;;;;;;1.13;0.93;;;;;;;8.76;77.35;96820.69;5071052;28;20206;-56
2023/01/11 08:41:39;;;;;;;1.90;0.80;;;;;;;8.85;77.24;96822.56;5078451;28;20207;-58
2023/01/11 08:44:05;;;;;;;0.83;0.70;;;;;;;8.82;74.44;96812.25;5082902;28;20229;-57
2023/01/11 08:46:33;;;;;;;0.70;0.53;;;;;;;8.90;75.15;96809.81;5083510;28;20217;-56
2023/01/11 08:49:00;;;;;;;0.50;0.50;;;;;;;8.93;77.11;96817.47;5086853;28;20274;-56
2023/01/11 08:51:28;;;;;;;0.93;0.60;;;;;;;8.91;76.73;96813.28;5082558;28;20203;-58
2023/01/11 08:53:55;;;;;;;0.97;0.50;;;;;;;8.88;76.36;96822.31;5085329;28;20213;-57
2023/01/11 08:56:21;;;;;;;0.60;0.60;;;;;;;8.91;75.43;96819.41;5085367;28;20206;-57
2023/01/11 08:58:48;;;;;;;1.17;0.80;;;;;;;8.82;76.05;96814.06;5085865;28;20194;-57
2023/01/11 09:01:14;;;;;;;1.67;0.90;;;;;;;8.88;77.03;96814.41;5079444;28;20675;-57
2023/01/11 09:03:41;;;;;;;0.93;0.70;;;;;;;8.88;77.78;96822.31;5074997;28;20202;-57
2023/01/11 09:06:07;;;;;;;0.80;0.80;;;;;;;8.94;75.59;96818.31;5074834;28;20206;-57
2023/01/11 09:08:35;;;;;;;0.70;0.70;;;;;;;8.87;75.70;96823.25;5075164;28;20545;-57
2023/01/11 09:11:52;;;;;;;0.50;0.50;;;;;;;8.89;75.05;96826.59;5075459;28;20202;-57
2023/01/11 09:13:48;;;;;;;0.50;0.50;;;;;;;8.85;75.74;96822.56;5074657;28;20221;-58
2023/01/11 09:16:15;;;;;;;0.60;0.60;;;;;;;8.88;76.32;96824.94;5073874;28;20289;-60
2023/01/11 09:18:41;;;;;;;0.70;0.70;;;;;;;8.92;76.71;96829.00;5074195;28;20206;-57
2023/01/11 09:21:08;;;;;;;0.60;0.60;;;;;;;8.93;77.38;96832.44;5074150;28;20206;-58
2023/01/11 09:23:36;;;;;;;2.13;0.57;;;;;;;8.93;76.57;96830.66;5074135;28;20198;-57
2023/01/11 09:26:03;;;;;;;0.90;0.70;;;;;;;8.92;76.37;96830.78;5073266;28;20219;-57
2023/01/11 09:28:30;;;;;;;0.73;0.60;;;;;;;8.97;77.97;96833.88;5074212;28;20511;-57
2023/01/11 09:30:56;;;;;;;0.87;0.87;;;;;;;9.02;78.21;96825.56;5088562;28;20209;-56
2023/01/11 09:33:23;;;;;;;0.60;0.60;;;;;;;9.07;78.77;96833.97;5096466;28;20183;-57
2023/01/11 09:35:51;;;;;;;1.17;0.70;;;;;;;9.01;76.47;96832.66;5094665;28;20234;-55
2023/01/11 09:38:18;;;;;;;0.57;0.57;;;;;;;9.08;78.19;96835.59;5080917;28;20202;-56
2023/01/11 09:40:54;;;;;;;1.07;0.70;;;;;;;9.13;76.82;96822.88;5072566;28;20202;-57
2023/01/11 09:43:25;;;;;;;1.13;1.00;;;;;;;9.16;78.03;96833.16;5072183;28;20248;-57
2023/01/11 09:45:54;;;;;;;1.20;0.60;;;;;;;9.18;76.18;96832.06;5073181;28;20206;-57
2023/01/11 09:48:27;;;;;;;0.70;0.70;;;;;;;9.25;76.59;96837.66;5073663;28;20202;-58
2023/01/11 09:50:54;;;;;;;0.50;0.50;;;;;;;9.32;76.95;96834.38;5075192;28;20198;-57
2023/01/11 09:53:30;;;;;;;0.60;0.60;;;;;;;9.39;78.15;96830.22;5076277;28;20302;-57
2023/01/11 09:56:01;;;;;;;0.67;0.67;;;;;;;9.40;77.95;96817.88;5073615;28;20190;-57
2023/01/11 09:58:39;;;;;;;2.87;0.90;;;;;;;9.47;77.48;96825.13;5074069;28;20627;-56
2023/01/11 10:01:11;;;;;;;1.30;0.60;;;;;;;9.59;74.41;96825.91;5073648;28;20237;-57
2023/01/11 10:04:04;;;;;;;0.70;0.70;;;;;;;9.54;75.67;96820.16;5072527;28;20197;-57
2023/01/11 10:06:36;;;;;;;1.73;0.83;;;;;;;9.50;74.16;96821.41;5071431;28;20198;-57
2023/01/11 10:09:13;;;;;;;1.00;0.87;;;;;;;9.49;74.92;96815.28;5071043;28;20541;-57
2023/01/11 10:11:51;;;;;;;3.10;0.90;;;;;;;9.50;73.93;96816.94;5072424;28;20199;-56
2023/01/11 10:14:25;;;;;;;0.70;0.67;;;;;;;9.48;74.82;96805.72;5071738;28;20526;-56
2023/01/11 10:16:59;;;;;;;1.03;0.93;;;;;;;9.45;76.59;96805.13;5072127;28;20202;-56
2023/01/11 10:19:30;;;;;;;1.90;0.80;;;;;;;9.42;75.21;96792.19;5072828;28;20209;-58
2023/01/11 10:22:00;;;;;;;5.20;1.07;;;;;;;9.36;79.77;96787.44;5072362;28;20195;-57
2023/01/11 10:24:31;;;;;;;2.77;0.87;;;;;;;9.37;78.20;96794.38;5071787;28;20206;-56
2023/01/11 10:27:08;;;;;;;1.70;0.40;;;;;;;9.36;76.66;96800.63;5072830;28;20590;-57
2023/01/11 10:29:50;;;;;;;0.67;0.60;;;;;;;9.28;78.01;96793.38;5072166;28;20882;-57
2023/01/11 10:32:33;;;;;;;1.07;0.97;;;;;;;9.31;78.20;96797.56;5071525;28;20293;-51
2023/01/11 10:35:30;;;;;;;2.93;2.10;;;;;;;9.31;80.71;96792.28;5072663;28;20194;-57
2023/01/11 10:38:24;;;;;;;1.03;1.03;;;;;;;9.25;81.01;96795.44;5071812;28;20198;-56
2023/01/11 10:41:07;;;;;;;0.97;0.83;;;;;;;9.15;82.35;96791.91;5071742;28;20206;-55
2023/01/11 10:43:39;;;;;;;0.70;0.70;;;;;;;9.16;82.55;96794.44;5071525;28;20221;-55
2023/01/11 10:46:08;;;;;;;1.00;0.90;;;;;;;9.17;81.51;96797.91;5071759;28;20210;-57
2023/01/11 10:48:36;;;;;;;0.80;0.70;;;;;;;9.14;81.82;96782.34;5071268;28;20213;-55
2023/01/11 10:51:07;;;;;;;1.00;0.90;;;;;;;9.13;82.86;96785.94;5071657;28;20206;-55
2023/01/11 10:53:38;;;;;;;0.70;0.70;;;;;;;9.11;84.37;96787.84;5072066;28;20210;-56
2023/01/11 10:56:15;;;;;;;0.53;0.53;;;;;;;9.07;83.23;96782.00;5071807;28;20199;-57
2023/01/11 10:58:56;;;;;;;1.13;0.80;;;;;;;9.11;85.20;96774.66;5070991;28;20194;-55
2023/01/11 11:01:33;;;;;;;1.00;1.00;;;;;;;9.10;86.09;96775.66;5071264;28;20368;-57
2023/01/11 11:04:10;;;;;;;1.63;0.80;;;;;;;9.12;88.02;96773.72;5072722;28;20297;-56
2023/01/11 11:06:45;;;;;;;1.50;0.70;;;;;;;9.13;89.53;96780.66;5074705;28;20182;-55
2023/01/11 11:09:18;;;;;;;1.80;0.80;;;;;;;9.12;90.72;96777.19;5073180;28;20214;-56
2023/01/11 11:11:52;;;;;;;1.10;1.10;;;;;;;9.14;92.98;96782.34;5071781;28;20198;-57
2023/01/11 11:14:25;;;;;;;0.93;0.70;;;;;;;9.12;92.83;96782.47;5071165;28;20209;-57
2023/01/11 11:16:59;;;;;;;1.80;0.80;;;;;;;9.05;96.18;96772.56;5070556;28;20195;-57
2023/01/11 11:19:31;;;;;;;1.17;0.83;;;;;;;8.98;98.32;96780.16;5071073;28;20210;-57
2023/01/11 11:21:57;;;;;;;1.07;1.00;;;;;;;8.90;100.00;96780.81;5070960;28;20202;-56
2023/01/11 11:24:31;;;;;;;1.10;0.97;;;;;;;8.84;100.00;96781.31;5070407;28;20206;-55
2023/01/11 11:27:01;;;;;;;0.77;0.60;;;;;;;8.82;100.00;96783.25;5071495;28;20202;-57
2023/01/11 11:29:29;;;;;;;2.33;1.00;;;;;;;8.82;100.00;96783.25;5070155;28;20211;-56
2023/01/11 11:31:57;;;;;;;0.70;0.70;;;;;;;8.78;100.00;96775.75;5071160;28;20298;-57
2023/01/11 11:34:26;;;;;;;1.00;0.90;;;;;;;8.75;100.00;96781.28;5071039;28;20205;-57
2023/01/11 11:36:53;;;;;;;1.00;0.80;;;;;;;8.69;100.00;96782.59;5071117;28;20206;-56
2023/01/11 11:39:22;;;;;;;1.10;1.00;;;;;;;8.73;100.00;96777.91;5069695;28;20213;-56
2023/01/11 11:41:49;;;;;;;2.47;0.80;;;;;;;8.68;100.00;96780.13;5070769;28;20245;-56
2023/01/11 11:44:19;;;;;;;0.93;0.90;;;;;;;8.72;100.00;96778.88;5070582;28;20217;-56
2023/01/11 11:47:12;;;;;;;0.70;0.70;;;;;;;8.65;100.00;96765.38;5071184;28;20673;-56
2023/01/11 11:49:39;;;;;;;0.83;0.70;;;;;;;8.62;100.00;96760.34;5067694;28;20198;-57
2023/01/11 11:52:07;;;;;;;0.70;0.70;;;;;;;8.54;100.00;96762.78;5070789;28;20234;-57
2023/01/11 11:54:35;;;;;;;2.73;0.80;;;;;;;8.49;100.00;96759.72;5070488;28;20213;-57
2023/01/11 11:57:13;;;;;;;2.43;1.00;;;;;;;8.54;100.00;96757.50;5070520;28;20515;-56
2023/01/11 11:59:44;;;;;;;0.93;0.93;;;;;;;8.51;100.00;96757.78;5077116;28;20190;-57
2023/01/11 12:02:25;;;;;;;1.13;0.87;;;;;;;8.52;100.00;96763.88;5095536;28;20171;-56
2023/01/11 12:04:53;;;;;;;0.97;0.90;;;;;;;8.49;100.00;96760.56;5096567;28;20232;-54
2023/01/11 12:07:20;;;;;;;1.30;1.00;;;;;;;8.46;100.00;96766.09;5084784;28;20545;-56
2023/01/11 12:09:49;;;;;;;0.93;0.90;;;;;;;8.45;100.00;96748.59;5070251;28;20220;-57
2023/01/11 12:12:18;;;;;;;1.30;0.90;;;;;;;8.31;100.00;96750.69;5070120;28;20305;-56
2023/01/11 12:15:06;;;;;;;1.00;1.00;;;;;;;8.37;100.00;96755.44;5069549;28;20195;-58
2023/01/11 12:17:34;;;;;;;1.77;0.90;;;;;;;8.36;100.00;96745.88;5070053;28;20202;-56